Time;durP1;ratioP1;P1;durP2;ratioP2;P2;SDS_P1;SDS_P2;PMS_P1;PMS_P2;Temp;Humidity;BMP_temperature;BMP_pressure;BME280_temperature;BME280_humidity;BME280_pressure;Samples;Min_cycle;Max_cycle;Signal;HPM_P1;HPM_P2
2021/08/09 00:00:10;;;;;;;9.15;2.55;;;15.60;99.90;;;;;;5077426;28;20419;-54
2021/08/09 00:02:36;;;;;;;7.53;2.38;;;15.60;99.90;;;;;;5071682;28;20092;-56
2021/08/09 00:05:02;;;;;;;8.05;2.70;;;15.50;99.90;;;;;;5077655;28;20074;-58
2021/08/09 00:07:27;;;;;;;9.23;2.40;;;15.50;99.90;;;;;;5079031;28;20506;-58
2021/08/09 00:09:53;;;;;;;8.15;2.80;;;15.40;99.90;;;;;;5077645;28;20027;-57
2021/08/09 00:12:20;;;;;;;15.10;3.13;;;15.50;99.90;;;;;;5078434;28;20024;-55
2021/08/09 00:14:45;;;;;;;8.68;2.75;;;15.50;99.90;;;;;;5075193;28;20071;-53
2021/08/09 00:17:11;;;;;;;6.53;2.42;;;15.50;99.90;;;;;;5078423;28;20451;-59
2021/08/09 00:19:37;;;;;;;4.90;2.15;;;15.50;99.90;;;;;;5076446;28;20023;-57
2021/08/09 00:22:03;;;;;;;10.13;2.65;;;15.40;99.90;;;;;;5076626;28;20020;-57
2021/08/09 00:24:28;;;;;;;12.75;2.40;;;15.30;99.90;;;;;;5072295;28;20039;-57
2021/08/09 00:26:55;;;;;;;8.52;3.00;;;15.40;99.90;;;;;;5079427;28;20038;-60
2021/08/09 00:29:20;;;;;;;6.95;2.58;;;15.40;99.90;;;;;;5073270;28;20028;-60
2021/08/09 00:31:46;;;;;;;7.68;2.45;;;15.50;99.90;;;;;;5079682;28;20047;-57
2021/08/09 00:34:11;;;;;;;6.63;2.83;;;15.50;99.90;;;;;;5076983;28;20032;-57
2021/08/09 00:36:37;;;;;;;11.60;3.15;;;15.40;99.90;;;;;;5073502;28;20020;-59
2021/08/09 00:39:03;;;;;;;9.18;2.80;;;15.40;99.90;;;;;;5070267;28;20890;-56
2021/08/09 00:41:28;;;;;;;8.35;2.33;;;15.40;99.90;;;;;;5073417;28;20020;-58
2021/08/09 00:43:54;;;;;;;13.02;2.80;;;15.40;99.90;;;;;;5070159;28;20475;-58
2021/08/09 00:46:20;;;;;;;11.02;2.50;;;15.40;99.90;;;;;;5072526;28;20036;-57
2021/08/09 00:48:45;;;;;;;7.80;2.50;;;15.50;99.90;;;;;;5075698;28;20514;-58
2021/08/09 00:51:11;;;;;;;6.40;2.35;;;15.50;99.90;;;;;;5072555;28;20112;-55
2021/08/09 00:53:38;;;;;;;7.53;2.67;;;15.40;99.90;;;;;;5075114;28;20021;-59
2021/08/09 00:56:04;;;;;;;7.65;2.75;;;15.30;99.90;;;;;;5078284;28;20040;-58
2021/08/09 00:58:31;;;;;;;5.50;2.42;;;15.40;99.90;;;;;;5082364;28;20052;-58
2021/08/09 01:00:56;;;;;;;6.90;2.70;;;15.40;99.90;;;;;;5077146;28;20051;-60
2021/08/09 01:03:22;;;;;;;9.43;2.55;;;15.40;99.90;;;;;;5084304;28;20090;-60
2021/08/09 01:05:49;;;;;;;7.32;2.63;;;15.40;99.90;;;;;;5078785;28;20036;-58
2021/08/09 01:08:35;;;;;;;8.07;2.30;;;15.30;99.90;;;;;;5079884;28;20077;-54
2021/08/09 01:11:24;;;;;;;13.18;3.72;;;15.30;99.90;;;;;;5080949;28;20518;-59
2021/08/09 01:14:08;;;;;;;6.93;2.95;;;15.40;99.90;;;;;;5077921;28;20039;-56
2021/08/09 01:16:35;;;;;;;13.75;4.68;;;15.40;99.90;;;;;;5078851;28;20031;-59
2021/08/09 01:19:07;;;;;;;9.88;2.70;;;15.30;99.90;;;;;;5079432;28;20024;-59
2021/08/09 01:21:35;;;;;;;8.75;2.80;;;15.30;99.90;;;;;;5081027;28;20016;-58
2021/08/09 01:24:03;;;;;;;11.48;3.25;;;15.20;99.90;;;;;;5080415;28;20395;-56
2021/08/09 01:26:49;;;;;;;9.73;3.30;;;15.20;99.90;;;;;;5080307;28;20032;-54
2021/08/09 01:29:25;;;;;;;9.07;2.45;;;15.10;99.90;;;;;;5081066;28;20031;-59
2021/08/09 01:31:52;;;;;;;10.52;2.90;;;15.10;99.90;;;;;;5084431;28;20511;-56
2021/08/09 01:34:20;;;;;;;15.10;3.97;;;15.10;99.90;;;;;;5076992;28;20032;-56
2021/08/09 01:36:50;;;;;;;5.95;2.78;;;15.10;99.90;;;;;;5084082;28;20035;-61
2021/08/09 01:39:17;;;;;;;7.10;2.30;;;15.00;99.90;;;;;;5082117;28;20072;-58
2021/08/09 01:41:44;;;;;;;10.60;2.83;;;15.00;99.90;;;;;;5079903;28;20426;-58
2021/08/09 01:44:11;;;;;;;4.72;2.40;;;14.90;99.90;;;;;;5078852;28;20046;-57
2021/08/09 01:46:37;;;;;;;8.32;2.28;;;14.90;99.90;;;;;;5082743;28;20058;-56
2021/08/09 01:49:04;;;;;;;6.05;2.40;;;14.90;99.90;;;;;;5078203;28;20031;-60
2021/08/09 01:51:32;;;;;;;8.10;2.65;;;14.90;99.90;;;;;;5079489;28;20185;-57
2021/08/09 01:53:59;;;;;;;9.55;3.10;;;14.90;99.90;;;;;;5076125;28;20084;-57
2021/08/09 01:56:24;;;;;;;11.93;3.60;;;14.90;99.90;;;;;;5081537;28;20621;-56
2021/08/09 01:58:51;;;;;;;6.47;2.50;;;14.90;99.90;;;;;;5076470;28;20036;-53
2021/08/09 02:01:17;;;;;;;6.13;2.53;;;14.80;99.90;;;;;;5079466;28;20020;-55
2021/08/09 02:03:44;;;;;;;5.30;2.58;;;14.80;99.90;;;;;;5083893;28;20032;-59
2021/08/09 02:06:10;;;;;;;11.00;3.05;;;14.70;99.90;;;;;;5084850;28;20567;-57
2021/08/09 02:08:37;;;;;;;8.85;3.35;;;14.70;99.90;;;;;;5080501;28;20034;-56
2021/08/09 02:11:21;;;;;;;13.73;3.38;;;14.60;99.90;;;;;;5079768;28;20024;-58
2021/08/09 02:13:55;;;;;;;6.07;3.10;;;14.60;99.90;;;;;;5079416;28;20039;-57
2021/08/09 02:16:37;;;;;;;7.15;2.50;;;14.50;99.90;;;;;;5077821;28;20364;-58
2021/08/09 02:19:09;;;;;;;6.72;3.15;;;14.50;99.90;;;;;;5079809;28;20055;-57
2021/08/09 02:21:47;;;;;;;6.82;3.08;;;14.50;99.90;;;;;;5078447;28;20028;-58
2021/08/09 02:24:36;;;;;;;12.68;2.97;;;14.40;99.90;;;;;;5099750;22;20099;-61
2021/08/09 02:27:11;;;;;;;8.85;3.55;;;14.40;99.90;;;;;;5080449;28;20515;-61
2021/08/09 02:29:40;;;;;;;9.32;3.00;;;14.40;99.90;;;;;;5076689;28;20499;-61
2021/08/09 02:32:08;;;;;;;7.40;2.72;;;14.40;99.90;;;;;;5081111;28;20028;-58
2021/08/09 02:34:35;;;;;;;14.00;3.45;;;14.40;99.90;;;;;;5070251;28;20032;-61
2021/08/09 02:37:02;;;;;;;12.85;3.85;;;14.40;99.90;;;;;;5063296;28;20025;-61
2021/08/09 02:39:33;;;;;;;8.48;2.78;;;14.30;99.90;;;;;;5060668;28;20535;-60
2021/08/09 02:42:00;;;;;;;7.05;3.20;;;14.30;99.90;;;;;;5061021;28;20028;-60
2021/08/09 02:44:27;;;;;;;7.60;2.90;;;14.30;99.90;;;;;;5062608;28;20078;-59
2021/08/09 02:46:54;;;;;;;12.82;3.10;;;14.30;99.90;;;;;;5063064;28;20052;-60
2021/08/09 02:49:19;;;;;;;6.25;2.80;;;14.40;99.90;;;;;;5062329;28;20075;-61
2021/08/09 02:51:46;;;;;;;9.55;3.00;;;14.40;99.90;;;;;;5059698;28;20117;-61
2021/08/09 02:54:18;;;;;;;11.45;3.42;;;14.40;99.90;;;;;;5058690;28;20028;-60
2021/08/09 02:56:44;;;;;;;8.25;3.03;;;14.40;99.90;;;;;;5060201;28;20028;-61
2021/08/09 02:59:11;;;;;;;6.38;2.78;;;14.40;99.90;;;;;;5055886;28;20065;-60
2021/08/09 03:01:37;;;;;;;9.98;3.20;;;14.40;99.90;;;;;;5060955;28;20029;-61
2021/08/09 03:04:05;;;;;;;7.20;2.60;;;14.40;99.90;;;;;;5062156;28;20029;-61
2021/08/09 03:06:31;;;;;;;9.77;3.45;;;14.40;99.90;;;;;;5062249;28;20991;-62
2021/08/09 03:08:58;;;;;;;5.03;2.83;;;14.30;99.90;;;;;;5061361;28;20051;-62
2021/08/09 03:11:24;;;;;;;5.82;2.85;;;14.40;99.90;;;;;;5059821;28;20388;-63
2021/08/09 03:13:50;;;;;;;10.77;3.40;;;14.40;99.90;;;;;;5060584;28;20040;-62
2021/08/09 03:16:17;;;;;;;11.45;2.85;;;14.40;99.90;;;;;;5060557;28;20036;-62
2021/08/09 03:18:42;;;;;;;5.57;2.95;;;14.40;99.90;;;;;;5063110;28;20373;-62
2021/08/09 03:21:08;;;;;;;8.95;3.00;;;14.50;99.90;;;;;;5059507;28;20027;-62
2021/08/09 03:23:35;;;;;;;10.93;3.90;;;14.40;99.90;;;;;;5060432;28;21901;-62
2021/08/09 03:26:01;;;;;;;7.18;3.30;;;14.50;99.90;;;;;;5059581;28;20469;-60
2021/08/09 03:28:27;;;;;;;7.60;3.38;;;14.50;99.90;;;;;;5062332;28;20103;-61
2021/08/09 03:30:52;;;;;;;6.50;3.05;;;14.60;99.90;;;;;;5059303;28;20037;-62
2021/08/09 03:33:18;;;;;;;10.93;3.00;;;14.60;99.90;;;;;;5062692;28;20144;-62
2021/08/09 03:35:43;;;;;;;8.30;2.70;;;14.60;99.90;;;;;;5060952;28;20595;-62
2021/08/09 03:38:09;;;;;;;9.07;3.20;;;14.60;99.90;;;;;;5063202;28;20021;-62
2021/08/09 03:40:35;;;;;;;6.60;2.85;;;14.60;99.90;;;;;;5059241;28;20039;-62
2021/08/09 03:43:03;;;;;;;12.43;2.95;;;14.60;99.90;;;;;;5061832;28;20028;-61
2021/08/09 03:45:28;;;;;;;6.22;2.55;;;14.60;99.90;;;;;;5073873;28;21700;-62
2021/08/09 03:47:54;;;;;;;9.18;3.13;;;14.60;99.90;;;;;;5062055;28;20047;-62
2021/08/09 03:50:19;;;;;;;6.97;3.45;;;14.60;99.90;;;;;;5062782;28;20032;-62
2021/08/09 03:52:50;;;;;;;4.47;2.13;;;14.50;99.90;;;;;;5059603;28;21042;-62
2021/08/09 03:55:16;;;;;;;7.32;2.75;;;14.50;99.90;;;;;;5060737;28;20020;-61
2021/08/09 03:57:42;;;;;;;9.77;3.08;;;14.50;99.90;;;;;;5060921;28;20024;-61
2021/08/09 04:00:08;;;;;;;7.57;2.42;;;14.50;99.90;;;;;;5060227;28;20509;-60
2021/08/09 04:02:34;;;;;;;12.55;2.60;;;14.60;99.90;;;;;;5061230;28;20020;-61
2021/08/09 04:05:00;;;;;;;6.82;2.72;;;14.60;99.90;;;;;;5062100;28;20031;-61
2021/08/09 04:07:27;;;;;;;6.22;3.22;;;14.60;99.90;;;;;;5055514;28;20029;-62
2021/08/09 04:09:54;;;;;;;8.90;3.78;;;14.50;99.90;;;;;;5059879;28;20067;-61
2021/08/09 04:12:20;;;;;;;5.43;2.72;;;14.50;99.90;;;;;;5062229;28;20033;-63
2021/08/09 04:14:45;;;;;;;10.10;2.75;;;14.50;99.90;;;;;;5060543;28;20137;-62
2021/08/09 04:17:11;;;;;;;6.40;2.92;;;14.50;99.90;;;;;;5059615;28;20377;-62
2021/08/09 04:19:36;;;;;;;10.68;3.78;;;14.50;99.90;;;;;;5062664;28;20032;-61
2021/08/09 04:22:02;;;;;;;7.57;2.97;;;14.50;99.90;;;;;;5057395;28;20060;-62
2021/08/09 04:24:28;;;;;;;8.85;2.85;;;14.50;99.90;;;;;;5060710;28;20028;-62
2021/08/09 04:26:53;;;;;;;13.13;3.47;;;14.60;99.90;;;;;;5060110;28;20123;-62
2021/08/09 04:29:19;;;;;;;4.50;2.45;;;14.50;99.90;;;;;;5061706;28;20032;-62
2021/08/09 04:31:44;;;;;;;12.07;2.63;;;14.50;99.90;;;;;;5062213;28;20044;-62
2021/08/09 04:34:10;;;;;;;8.90;2.88;;;14.50;99.90;;;;;;5060061;28;20090;-62
2021/08/09 04:36:36;;;;;;;10.95;2.63;;;14.50;99.90;;;;;;5066762;28;20024;-62
2021/08/09 04:39:01;;;;;;;10.02;3.65;;;14.50;99.90;;;;;;5062562;28;20027;-62
2021/08/09 04:41:27;;;;;;;9.75;2.90;;;14.50;99.90;;;;;;5062675;28;20034;-62
2021/08/09 04:43:52;;;;;;;6.18;3.33;;;14.60;99.90;;;;;;5061061;28;20043;-62
2021/08/09 04:46:18;;;;;;;8.82;3.03;;;14.60;99.90;;;;;;5064289;28;20131;-62
2021/08/09 04:48:43;;;;;;;6.05;2.70;;;14.60;99.90;;;;;;5065431;28;20025;-61
2021/08/09 04:51:09;;;;;;;7.05;2.45;;;14.70;99.90;;;;;;5065767;28;20031;-62
2021/08/09 04:53:34;;;;;;;6.75;3.40;;;14.80;99.90;;;;;;5063912;28;20066;-62
2021/08/09 04:56:00;;;;;;;7.88;2.40;;;14.70;99.90;;;;;;5065413;28;20028;-62
2021/08/09 04:58:26;;;;;;;10.95;3.45;;;14.80;99.90;;;;;;5065004;28;20020;-62
2021/08/09 05:00:51;;;;;;;7.60;3.20;;;14.90;99.90;;;;;;5065374;28;20031;-62
2021/08/09 05:03:17;;;;;;;6.05;2.92;;;14.90;99.90;;;;;;5065818;28;20035;-62
2021/08/09 05:05:47;;;;;;;5.97;2.83;;;14.90;99.90;;;;;;5063967;28;20032;-62
2021/08/09 05:08:12;;;;;;;9.68;2.95;;;15.00;99.90;;;;;;5062830;28;20100;-62
2021/08/09 05:10:38;;;;;;;10.38;3.17;;;15.00;99.90;;;;;;5064197;28;20080;-61
2021/08/09 05:13:04;;;;;;;10.48;2.90;;;15.00;99.90;;;;;;5065478;28;20028;-62
2021/08/09 05:15:32;;;;;;;5.15;2.25;;;15.10;99.90;;;;;;5062718;28;20024;-62
2021/08/09 05:17:57;;;;;;;9.88;2.97;;;15.10;99.90;;;;;;5064660;28;20031;-62
2021/08/09 05:20:23;;;;;;;5.47;2.55;;;15.20;99.90;;;;;;5060454;28;20026;-61
2021/08/09 05:22:49;;;;;;;7.18;3.08;;;15.20;99.90;;;;;;5061361;28;20025;-60
2021/08/09 05:25:15;;;;;;;9.38;2.63;;;15.30;99.90;;;;;;5061547;28;20567;-59
2021/08/09 05:27:42;;;;;;;6.38;2.70;;;15.20;99.90;;;;;;5064867;28;20147;-63
2021/08/09 05:30:10;;;;;;;5.90;2.75;;;15.30;99.90;;;;;;5063558;28;20093;-60
2021/08/09 05:32:39;;;;;;;15.32;3.10;;;15.30;99.90;;;;;;5062717;28;20028;-60
2021/08/09 05:35:06;;;;;;;7.22;2.25;;;15.30;99.90;;;;;;5060127;28;20029;-62
2021/08/09 05:37:34;;;;;;;6.90;2.28;;;15.30;99.90;;;;;;5065015;28;20021;-63
2021/08/09 05:40:00;;;;;;;10.93;2.67;;;15.40;99.90;;;;;;5062308;28;20027;-63
2021/08/09 05:42:26;;;;;;;7.50;3.03;;;15.40;99.90;;;;;;5062176;28;20020;-62
2021/08/09 05:44:52;;;;;;;6.95;2.90;;;15.40;99.90;;;;;;5062477;28;20660;-62
2021/08/09 05:47:17;;;;;;;9.48;2.22;;;15.40;99.90;;;;;;5064319;28;20554;-61
2021/08/09 05:49:43;;;;;;;4.82;2.38;;;15.40;99.90;;;;;;5064851;28;20024;-62
2021/08/09 05:52:21;;;;;;;10.60;2.28;;;15.50;99.90;;;;;;5062556;28;20036;-62
2021/08/09 05:54:47;;;;;;;13.13;3.08;;;15.50;99.90;;;;;;5059132;28;20036;-62
2021/08/09 05:57:12;;;;;;;8.05;2.95;;;15.50;99.90;;;;;;5063058;28;20029;-62
2021/08/09 05:59:39;;;;;;;8.27;2.40;;;15.50;99.90;;;;;;5063035;28;20059;-62
2021/08/09 06:02:04;;;;;;;7.30;2.70;;;15.60;99.90;;;;;;5061093;28;20031;-61
2021/08/09 06:04:31;;;;;;;7.75;2.35;;;15.70;99.90;;;;;;5063010;28;20032;-62
2021/08/09 06:06:57;;;;;;;6.70;2.90;;;15.70;99.90;;;;;;5062291;28;20028;-62
2021/08/09 06:09:23;;;;;;;8.35;2.35;;;15.80;99.90;;;;;;5064026;28;20511;-61
2021/08/09 06:11:48;;;;;;;11.73;2.80;;;15.80;99.90;;;;;;5061173;28;22324;-62
2021/08/09 06:14:14;;;;;;;7.00;2.47;;;15.90;99.90;;;;;;5060882;28;20043;-62
2021/08/09 06:16:39;;;;;;;5.47;2.25;;;15.90;99.90;;;;;;5060804;28;20492;-62
2021/08/09 06:19:05;;;;;;;11.02;2.50;;;16.00;99.90;;;;;;5050914;28;20385;-62
2021/08/09 06:21:30;;;;;;;5.25;1.98;;;16.10;99.90;;;;;;5061751;28;20154;-62
2021/08/09 06:23:56;;;;;;;5.03;2.08;;;16.10;99.90;;;;;;5063023;28;20036;-61
2021/08/09 06:26:21;;;;;;;7.65;2.00;;;16.20;99.90;;;;;;5056450;28;20028;-62
2021/08/09 06:28:47;;;;;;;11.45;3.15;;;16.20;99.90;;;;;;5066619;28;20032;-63
2021/08/09 06:31:12;;;;;;;28.52;3.05;;;16.20;99.90;;;;;;5062876;28;20032;-62
2021/08/09 06:33:38;;;;;;;8.27;2.17;;;16.30;99.90;;;;;;5063578;28;20034;-62
2021/08/09 06:36:04;;;;;;;8.10;2.42;;;16.30;99.90;;;;;;5061603;28;20112;-62
2021/08/09 06:38:29;;;;;;;5.00;2.22;;;16.30;99.90;;;;;;5060366;28;20035;-62
2021/08/09 06:40:55;;;;;;;5.10;1.65;;;16.30;99.90;;;;;;5064111;28;20037;-62
2021/08/09 06:43:20;;;;;;;5.65;2.25;;;16.40;99.90;;;;;;5061911;28;20039;-58
2021/08/09 06:45:46;;;;;;;5.60;2.28;;;16.40;99.90;;;;;;5058967;28;20035;-62
2021/08/09 06:48:12;;;;;;;10.73;1.90;;;16.50;99.90;;;;;;5061830;28;20052;-59
2021/08/09 06:50:41;;;;;;;6.63;2.15;;;16.50;99.90;;;;;;5060500;28;20059;-61
2021/08/09 06:53:08;;;;;;;10.60;2.20;;;16.60;99.90;;;;;;5062117;28;20055;-60
2021/08/09 06:55:33;;;;;;;14.63;2.58;;;16.70;99.90;;;;;;5059642;28;21912;-60
2021/08/09 06:57:59;;;;;;;6.97;2.25;;;16.80;99.90;;;;;;5061877;28;20077;-61
2021/08/09 07:00:25;;;;;;;14.23;2.42;;;16.90;99.90;;;;;;5060514;28;20040;-59
2021/08/09 07:02:50;;;;;;;11.88;2.38;;;16.90;99.90;;;;;;5061465;28;20504;-60
2021/08/09 07:05:16;;;;;;;12.75;2.33;;;17.00;99.90;;;;;;5059786;28;20028;-62
2021/08/09 07:07:43;;;;;;;5.90;2.15;;;17.00;99.90;;;;;;5060902;28;20107;-62
2021/08/09 07:10:09;;;;;;;44.03;4.80;;;17.10;99.90;;;;;;5060605;28;20028;-60
2021/08/09 07:12:35;;;;;;;9.80;2.28;;;17.20;99.90;;;;;;5061828;28;20036;-59
2021/08/09 07:15:00;;;;;;;6.90;2.13;;;17.20;99.90;;;;;;5057630;28;20033;-60
2021/08/09 07:17:26;;;;;;;8.63;2.22;;;17.30;99.90;;;;;;5059298;28;20107;-62
2021/08/09 07:19:51;;;;;;;8.30;2.17;;;17.30;99.90;;;;;;5060897;28;20036;-60
2021/08/09 07:22:17;;;;;;;3.40;2.00;;;17.30;99.90;;;;;;5060070;28;21498;-59
2021/08/09 07:24:43;;;;;;;7.00;2.13;;;17.30;99.90;;;;;;5057168;28;20028;-58
2021/08/09 07:27:08;;;;;;;6.70;1.85;;;17.30;99.90;;;;;;5062380;28;20035;-60
2021/08/09 07:29:34;;;;;;;8.07;1.70;;;17.40;99.90;;;;;;5055794;28;20044;-61
2021/08/09 07:31:59;;;;;;;7.22;2.03;;;17.50;99.90;;;;;;5055452;28;20435;-60
2021/08/09 07:34:25;;;;;;;6.07;1.92;;;17.60;99.90;;;;;;5061897;28;20035;-59
2021/08/09 07:36:51;;;;;;;13.35;2.67;;;17.60;99.90;;;;;;5060408;28;20016;-60
2021/08/09 07:39:16;;;;;;;9.93;1.98;;;17.70;99.90;;;;;;5059596;28;20491;-59
2021/08/09 07:41:42;;;;;;;7.22;2.30;;;17.80;99.90;;;;;;5061548;28;20032;-61
2021/08/09 07:44:07;;;;;;;8.00;2.15;;;17.80;99.90;;;;;;5058857;28;20124;-59
2021/08/09 07:46:33;;;;;;;3.03;1.63;;;17.90;99.90;;;;;;5060694;28;20051;-58
2021/08/09 07:48:58;;;;;;;7.85;1.90;;;18.00;99.90;;;;;;5061145;28;20546;-59
2021/08/09 07:51:24;;;;;;;11.40;2.40;;;18.10;99.90;;;;;;5058798;28;20033;-58
2021/08/09 07:53:50;;;;;;;10.30;2.78;;;18.10;99.90;;;;;;5056697;28;20041;-57
2021/08/09 07:56:15;;;;;;;20.48;2.58;;;18.20;99.90;;;;;;5055912;28;20438;-61
2021/08/09 07:58:41;;;;;;;7.32;2.17;;;18.30;99.90;;;;;;5059932;28;20024;-59
2021/08/09 08:01:07;;;;;;;9.05;1.73;;;18.40;99.90;;;;;;5058887;28;20038;-58
2021/08/09 08:03:33;;;;;;;5.63;2.15;;;18.30;99.90;;;;;;5061119;28;20094;-57
2021/08/09 08:05:58;;;;;;;8.73;2.25;;;18.40;99.90;;;;;;5056906;28;20044;-60
2021/08/09 08:08:24;;;;;;;6.93;1.67;;;18.50;99.90;;;;;;5056239;28;20039;-59
2021/08/09 08:10:49;;;;;;;10.25;2.00;;;18.50;99.90;;;;;;5055905;28;20467;-60
2021/08/09 08:13:15;;;;;;;5.13;1.75;;;18.70;99.90;;;;;;5058913;28;20432;-61
2021/08/09 08:15:41;;;;;;;6.43;2.20;;;18.80;99.90;;;;;;5060028;28;20492;-58
2021/08/09 08:18:06;;;;;;;9.10;3.25;;;18.90;99.90;;;;;;5058058;28;20028;-60
2021/08/09 08:20:32;;;;;;;6.60;2.25;;;19.00;99.90;;;;;;5059778;28;20786;-60
2021/08/09 08:23:01;;;;;;;13.25;2.40;;;19.20;99.90;;;;;;5060234;28;20490;-62
2021/08/09 08:25:27;;;;;;;5.90;1.90;;;19.20;99.90;;;;;;5068615;22;20139;-66
2021/08/09 08:27:53;;;;;;;7.18;1.83;;;19.30;99.90;;;;;;5041389;28;20031;-66
2021/08/09 08:30:19;;;;;;;3.80;1.67;;;19.40;99.90;;;;;;5032704;28;20025;-68
2021/08/09 08:32:45;;;;;;;5.28;1.88;;;19.50;99.90;;;;;;5041136;28;20561;-65
2021/08/09 08:35:11;;;;;;;6.60;1.67;;;19.60;99.90;;;;;;5037982;28;20028;-65
2021/08/09 08:37:36;;;;;;;4.82;1.75;;;19.60;99.90;;;;;;5034903;28;20026;-68
2021/08/09 08:40:03;;;;;;;5.40;1.70;;;19.60;99.90;;;;;;5040107;28;20225;-66
2021/08/09 08:42:28;;;;;;;5.80;1.95;;;19.70;99.90;;;;;;5043895;28;20029;-66
2021/08/09 08:44:54;;;;;;;6.28;1.90;;;19.80;99.90;;;;;;5019769;28;20043;-67
2021/08/09 08:47:20;;;;;;;4.57;1.38;;;19.90;99.90;;;;;;5038596;28;20427;-67
2021/08/09 08:49:46;;;;;;;4.05;1.50;;;20.00;99.90;;;;;;5038528;28;20048;-67
2021/08/09 08:52:13;;;;;;;7.38;1.90;;;20.00;99.90;;;;;;5037052;28;20053;-67
2021/08/09 08:54:41;;;;;;;5.43;2.13;;;20.10;99.90;;;;;;5042553;28;20025;-66
2021/08/09 08:57:21;;;;;;;8.48;2.13;;;20.20;99.90;;;;;;5036277;28;20114;-65
2021/08/09 08:59:47;;;;;;;6.40;1.70;;;20.20;99.90;;;;;;5041506;28;20080;-66
2021/08/09 09:02:33;;;;;;;7.93;2.30;;;20.20;99.90;;;;;;5039377;28;20086;-64
2021/08/09 09:05:13;;;;;;;29.30;4.93;;;20.20;99.90;;;;;;5040016;28;20033;-65
2021/08/09 09:07:41;;;;;;;5.00;1.55;;;20.40;99.90;;;;;;5035888;28;20124;-66
2021/08/09 09:10:13;;;;;;;9.00;2.38;;;20.60;99.90;;;;;;5035875;28;20728;-65
2021/08/09 09:12:39;;;;;;;4.50;1.88;;;20.70;99.90;;;;;;5018489;28;20493;-66
2021/08/09 09:15:06;;;;;;;4.57;1.50;;;20.70;99.90;;;;;;5037882;28;20111;-66
2021/08/09 09:17:34;;;;;;;30.00;3.08;;;20.80;99.90;;;;;;5041343;28;20049;-66
2021/08/09 09:20:21;;;;;;;8.88;1.77;;;20.80;99.90;;;;;;5030458;28;20022;-67
2021/08/09 09:22:46;;;;;;;8.43;1.95;;;20.70;99.90;;;;;;5035941;28;20095;-65
2021/08/09 09:25:12;;;;;;;8.40;1.63;;;20.60;99.90;;;;;;5038828;28;20036;-66
2021/08/09 09:27:37;;;;;;;5.63;1.45;;;20.50;99.90;;;;;;5036439;28;20492;-66
2021/08/09 09:30:26;;;;;;;11.13;1.60;;;20.50;99.90;;;;;;5035241;28;20572;-65
2021/08/09 09:33:03;;;;;;;9.52;1.20;;;20.40;99.90;;;;;;5035083;28;20025;-65
2021/08/09 09:35:29;;;;;;;5.68;1.33;;;20.50;99.90;;;;;;5033846;28;20492;-65
2021/08/09 09:37:55;;;;;;;4.13;1.40;;;20.50;99.90;;;;;;5036329;28;20565;-66
2021/08/09 09:40:21;;;;;;;9.35;1.67;;;20.70;99.90;;;;;;5034493;28;20041;-66
2021/08/09 09:42:47;;;;;;;4.93;1.50;;;20.80;99.90;;;;;;5035244;28;20029;-65
2021/08/09 09:45:26;;;;;;;6.82;1.50;;;20.90;99.90;;;;;;5034828;28;20120;-67
2021/08/09 09:48:01;;;;;;;12.82;2.05;;;20.80;99.90;;;;;;5036946;28;20029;-66
2021/08/09 09:50:27;;;;;;;6.72;1.30;;;21.00;99.90;;;;;;5036819;28;20029;-66
2021/08/09 09:52:52;;;;;;;6.05;1.55;;;21.00;99.90;;;;;;5035134;28;20048;-67
2021/08/09 09:55:18;;;;;;;4.93;1.52;;;20.90;99.90;;;;;;5033686;28;20033;-65
2021/08/09 09:57:46;;;;;;;7.07;1.60;;;21.00;99.90;;;;;;5015304;28;20025;-66
2021/08/09 10:00:16;;;;;;;10.40;1.70;;;21.00;99.90;;;;;;5035028;28;20029;-66
2021/08/09 10:02:47;;;;;;;11.35;1.85;;;20.90;99.90;;;;;;5038265;28;20500;-65
2021/08/09 10:05:14;;;;;;;3.88;1.23;;;21.00;99.90;;;;;;5038744;28;20086;-65
2021/08/09 10:07:41;;;;;;;7.63;1.90;;;20.90;99.90;;;;;;5044590;28;20098;-65
2021/08/09 10:10:09;;;;;;;5.28;1.40;;;21.10;99.90;;;;;;5051630;28;20090;-65
2021/08/09 10:12:36;;;;;;;6.53;1.27;;;21.20;99.90;;;;;;5040589;28;20451;-66
2021/08/09 10:15:03;;;;;;;9.98;1.83;;;21.30;99.90;;;;;;5039427;28;20057;-64
2021/08/09 10:17:30;;;;;;;5.80;1.08;;;21.30;99.90;;;;;;5042437;28;20105;-64
2021/08/09 10:19:59;;;;;;;4.18;1.40;;;21.20;99.90;;;;;;5048033;28;20047;-63
2021/08/09 10:22:25;;;;;;;8.05;1.75;;;21.00;99.90;;;;;;5041447;28;20048;-63
2021/08/09 10:24:53;;;;;;;4.13;1.40;;;20.90;99.90;;;;;;5046060;28;20497;-65
2021/08/09 10:27:46;;;;;;;5.47;1.30;;;21.10;99.90;;;;;;5043240;28;20446;-65
2021/08/09 10:30:16;;;;;;;4.22;1.13;;;21.30;99.90;;;;;;5042275;28;20044;-64
2021/08/09 10:32:47;;;;;;;5.10;1.20;;;21.50;99.90;;;;;;5041108;28;20044;-64
2021/08/09 10:35:35;;;;;;;7.13;1.30;;;21.50;99.90;;;;;;5043032;28;21667;-65
2021/08/09 10:38:18;;;;;;;4.60;1.58;;;21.40;99.90;;;;;;5043833;28;20044;-64
2021/08/09 10:41:08;;;;;;;9.32;2.08;;;21.40;99.90;;;;;;5039026;28;20048;-64
2021/08/09 10:43:37;;;;;;;9.90;1.92;;;21.30;99.90;;;;;;5028089;28;20059;-64
2021/08/09 10:46:36;;;;;;;6.63;1.63;;;21.40;99.90;;;;;;5027073;28;20480;-64
2021/08/09 10:49:02;;;;;;;7.70;1.52;;;21.60;99.90;;;;;;5048937;28;20496;-65
2021/08/09 10:51:52;;;;;;;18.55;2.55;;;21.70;99.90;;;;;;5046267;28;20041;-65
2021/08/09 10:54:37;;;;;;;7.30;2.08;;;21.70;99.90;;;;;;5040706;28;20035;-66
2021/08/09 10:57:04;;;;;;;3.38;0.85;;;21.90;99.90;;;;;;5038041;28;20404;-66
2021/08/09 10:59:46;;;;;;;7.10;1.75;;;21.80;99.90;;;;;;5041386;28;20032;-68
2021/08/09 11:02:24;;;;;;;4.60;1.60;;;22.00;99.90;;;;;;5037310;28;20040;-65
2021/08/09 11:05:14;;;;;;;6.80;1.08;;;22.00;99.90;;;;;;5039829;28;20028;-66
2021/08/09 11:07:44;;;;;;;2.90;1.30;;;22.20;99.90;;;;;;5039714;28;20028;-65
2021/08/09 11:10:10;;;;;;;3.55;0.82;;;21.90;99.90;;;;;;5040144;28;20641;-65
2021/08/09 11:12:58;;;;;;;4.28;1.00;;;22.30;99.90;;;;;;5019290;28;20029;-64
2021/08/09 11:15:24;;;;;;;3.63;0.90;;;22.60;99.90;;;;;;5039300;28;20028;-65
2021/08/09 11:17:52;;;;;;;3.45;1.13;;;22.60;99.90;;;;;;5040553;28;20021;-63
2021/08/09 11:20:28;;;;;;;4.25;1.23;;;22.70;99.90;;;;;;5041055;28;20028;-66
2021/08/09 11:23:09;;;;;;;6.40;1.30;;;22.80;99.90;;;;;;5041499;28;20021;-66
2021/08/09 11:25:48;;;;;;;6.15;1.40;;;23.00;99.90;;;;;;5037945;28;20037;-65
2021/08/09 11:28:20;;;;;;;3.75;1.02;;;23.20;99.90;;;;;;5040050;28;20029;-66
2021/08/09 11:30:46;;;;;;;5.78;1.40;;;23.10;99.90;;;;;;5038690;28;20086;-66
2021/08/09 11:33:34;;;;;;;9.52;1.20;;;22.80;99.90;;;;;;5038874;28;20017;-65
2021/08/09 11:36:06;;;;;;;4.35;1.15;;;22.70;99.90;;;;;;5036940;28;20443;-65
2021/08/09 11:38:48;;;;;;;3.50;0.90;;;22.60;99.90;;;;;;5037407;28;22334;-64
2021/08/09 11:41:22;;;;;;;5.60;0.82;;;22.50;99.90;;;;;;5034489;28;20048;-65
2021/08/09 11:43:49;;;;;;;;;;;22.50;99.90;;;;;;5039616;28;20041;-66
2021/08/09 11:46:17;;;;;;;2.40;0.95;;;22.60;99.90;;;;;;5038624;28;20334;-64
2021/08/09 11:48:46;;;;;;;3.65;0.93;;;22.70;99.90;;;;;;5036890;28;20039;-65
2021/08/09 11:51:34;;;;;;;6.18;1.55;;;22.60;99.90;;;;;;5039428;28;20029;-65
2021/08/09 11:54:01;;;;;;;5.30;1.15;;;22.60;99.90;;;;;;5042912;28;20123;-65
2021/08/09 11:56:32;;;;;;;7.07;1.13;;;22.50;99.90;;;;;;5017673;28;20029;-65
2021/08/09 11:58:59;;;;;;;6.97;1.33;;;22.30;99.90;;;;;;5032662;28;20086;-64
2021/08/09 12:01:30;;;;;;;3.67;1.17;;;22.40;99.90;;;;;;5040100;28;20037;-66
2021/08/09 12:04:13;;;;;;;5.65;1.17;;;22.40;99.90;;;;;;5037201;28;20045;-66
2021/08/09 12:06:51;;;;;;;6.38;1.02;;;22.40;99.90;;;;;;5041046;28;20404;-65
2021/08/09 12:09:20;;;;;;;3.80;1.23;;;22.40;99.90;;;;;;5043310;28;20309;-65
2021/08/09 12:12:04;;;;;;;3.97;1.30;;;22.30;99.90;;;;;;5041685;28;20028;-65
2021/08/09 12:14:31;;;;;;;3.30;1.17;;;22.40;99.90;;;;;;5043140;28;20044;-65
2021/08/09 12:16:59;;;;;;;6.93;1.83;;;22.40;99.90;;;;;;5045251;28;20370;-65
2021/08/09 12:19:45;;;;;;;5.47;1.30;;;22.60;99.90;;;;;;5041471;28;20071;-65
2021/08/09 12:22:13;;;;;;;9.00;1.45;;;22.80;99.90;;;;;;5040822;28;20524;-65
2021/08/09 12:24:40;;;;;;;8.27;1.48;;;22.70;99.90;;;;;;5039032;28;20563;-65
2021/08/09 12:27:17;;;;;;;4.88;1.40;;;22.60;99.90;;;;;;5041342;28;20043;-64
2021/08/09 12:30:11;;;;;;;5.72;1.67;;;22.50;99.90;;;;;;5045282;28;20060;-63
2021/08/09 12:32:42;;;;;;;5.28;1.30;;;22.40;99.90;;;;;;5042901;28;20607;-63
2021/08/09 12:35:12;;;;;;;2.13;0.90;;;22.40;99.90;;;;;;5043342;28;20048;-63
2021/08/09 12:37:39;;;;;;;6.05;0.98;;;22.40;99.90;;;;;;5047486;28;20055;-63
2021/08/09 12:40:18;;;;;;;5.75;1.00;;;22.20;99.90;;;;;;5040892;28;20082;-64
2021/08/09 12:43:03;;;;;;;5.13;1.08;;;22.00;99.90;;;;;;5038561;28;20025;-63
2021/08/09 12:45:29;;;;;;;6.90;1.05;;;22.00;99.90;;;;;;5039150;28;20027;-63
2021/08/09 12:47:55;;;;;;;2.83;1.00;;;21.90;99.90;;;;;;5044151;28;20705;-61
2021/08/09 12:50:21;;;;;;;4.88;0.77;;;21.80;99.90;;;;;;5038877;28;20056;-63
2021/08/09 12:52:47;;;;;;;2.42;0.95;;;21.70;99.90;;;;;;5038995;28;20037;-62